Andre Dourado har fløyet solo PDF Skriv ut E-post
Skrevet av Dmytro Yakovenko   
fredag 27. juli 2018 20:50

Andre Dourado fløy soloutsjekk den 12. juli og sin første solotur den 19. juli 2018. Soloutsjekken ble unnagjort på litt over en time, men første solo flyturen måtte utsettes i en uke. En uke senere ble Andre sendt på sine første solo landingsrunder av Skolesjefen Morten Borgen. Skolen og Styret gratulerer Andre med første solotur og ønsker han lykke til med resten av skoleprogrammet. Hovedinstruktøren har vært Christoffer Lund.


 
 
METAR
2018/12/12 16:20 ENCN 121620Z 05008KT 9999 FEW032 M01/M03 Q1032
TAF
2018/12/12 15:37 TAF ENCN 121400Z 1215/1222 05008KT 9999 FEW012 BKN025 PROB40 TEMPO 1215/1222 4000 -SN BKN012
LN-KFK
Operativ VFR-natt
VFR dag
08:13 - 16:29
Brannvakt
Inaktiv
Banner
Banner
Banner
Banner
Banner